F/v_l'omerta — FHXG — position and weather

sailwx.info

Track history (hours):
 
Tides and Currents Weather Stations Pressure Air Temp Water Temp Dewpoint Dewpoint Depression Visibility Wind Speed Wind Dir Waves Ship Positions

F/v_l'omerta

Last reported at 2017-Jul-26 18:43 UTC. Time now 2017-Jul-26 22:41 UTC.
Position N 46°02' W 001°37'.

Length 18 m.

Type: Fishing. MMSI: 227903000.

Date/timePositionNaut miles runAvg speedWind from/ knotsBaromVisibWave heightAir tempDewpointWater temp
2017-Jul-26 18:43N 46°02' W 001°37'3 0.6
2017-Jul-26 13:14N 46°01' W 001°32'1 0.3
2017-Jul-26 09:39N 46°01' W 001°30'1 2.6
2017-Jul-26 09:25N 46°02' W 001°30'9 1.5
2017-Jul-26 03:35N 46°07' W 001°40'1 3.8
2017-Jul-26 03:17N 46°09' W 001°40'1 3.7
2017-Jul-26 03:00N 46°10' W 001°40'2 3.9
2017-Jul-26 02:30N 46°11' W 001°42'3 3.6
2017-Jul-26 01:38N 46°13' W 001°46'0 1.6
2017-Jul-26 01:30N 46°13' W 001°46'2 3.7
2017-Jul-26 01:00N 46°14' W 001°47'1 2.9
2017-Jul-26 00:30N 46°16' W 001°48'2 3.5
2017-Jul-25 23:59N 46°14' W 001°46'5 3.6
2017-Jul-25 22:36N 46°10' W 001°43'0 0.1
2017-Jul-25 20:57N 46°10' W 001°43'2 3.9
2017-Jul-25 20:30N 46°12' W 001°43'2 4.2
2017-Jul-25 20:00N 46°14' W 001°44'2 4.2
2017-Jul-25 19:30N 46°15' W 001°45'2 4.2
2017-Jul-25 19:00N 46°17' W 001°47'2 4.2
2017-Jul-25 18:30N 46°19' W 001°48'2 3.4
2017-Jul-25 18:00N 46°20' W 001°46'1 1.1
2017-Jul-25 17:30N 46°20' W 001°45'2 3.5
2017-Jul-25 17:00N 46°19' W 001°47'2 3.5
2017-Jul-25 16:30N 46°21' W 001°48'2 3.5
2017-Jul-25 16:00N 46°22' W 001°46'2 3.4
2017-Jul-25 15:30N 46°22' W 001°44'1 2.0
2017-Jul-25 15:00N 46°21' W 001°43'4 4.1
2017-Jul-25 14:00N 46°19' W 001°49'2 3.2
2017-Jul-25 13:30N 46°20' W 001°50'2 3.7
2017-Jul-25 13:00N 46°22' W 001°51'1 2.7
2017-Jul-25 12:30N 46°22' W 001°49'2 3.7
2017-Jul-25 12:00N 46°20' W 001°48'2 3.6
2017-Jul-25 11:30N 46°19' W 001°48'2 3.4
2017-Jul-25 11:00N 46°20' W 001°49'2 4.2
2017-Jul-25 10:30N 46°22' W 001°51'2 3.9
2017-Jul-25 10:00N 46°24' W 001°52'1 2.1
2017-Jul-25 09:30N 46°25' W 001°52'2 3.4
2017-Jul-25 09:00N 46°23' W 001°52'2 3.6
2017-Jul-25 08:30N 46°21' W 001°51'2 3.7
2017-Jul-25 08:00N 46°20' W 001°49'1 2.9
2017-Jul-25 07:30N 46°18' W 001°49'3 4.0
2017-Jul-25 06:43N 46°21' W 001°51'1 4.0
2017-Jul-25 06:30N 46°22' W 001°52'2 4.1
2017-Jul-25 06:00N 46°24' W 001°52'3 5.1
2017-Jul-25 05:30N 46°26' W 001°50'4 8.1
2017-Jul-25 05:00N 46°29' W 001°48'0 0.8
2017-Jul-25 04:30N 46°30' W 001°48'0 0.4
2017-Jul-25 04:00N 46°30' W 001°47'0 0.0
2017-Jul-24 15:47N 46°30' W 001°47'  
2017-Jul-22 09:45N 46°30' W 001°47'0 0.0
2017-Jul-22 09:30N 46°30' W 001°47'0 0.0
2017-Jul-22 09:00N 46°30' W 001°47'0 0.0
2017-Jul-22 08:30N 46°30' W 001°47'0 0.0
2017-Jul-22 08:00N 46°30' W 001°47'0 0.0
2017-Jul-22 07:30N 46°30' W 001°47'0 0.0
2017-Jul-22 07:00N 46°30' W 001°47'0 0.0
2017-Jul-22 06:30N 46°30' W 001°47'0 0.0
2017-Jul-21 11:18N 46°30' W 001°47'0 0.0
2017-Jul-21 11:00N 46°30' W 001°47'0 0.0
2017-Jul-21 10:30N 46°30' W 001°47'0 0.0
2017-Jul-21 10:00N 46°30' W 001°47'0 0.0
2017-Jul-21 09:30N 46°30' W 001°47'0 0.0
2017-Jul-21 09:00N 46°30' W 001°47'0 0.0
2017-Jul-21 08:30N 46°30' W 001°47'0 0.0
2017-Jul-21 08:00N 46°30' W 001°47'0 0.0
2017-Jul-21 07:30N 46°30' W 001°47'0 0.0
2017-Jul-21 07:00N 46°30' W 001°47'0 0.0
2017-Jul-21 06:30N 46°30' W 001°47'0 0.0
2017-Jul-20 15:26N 46°30' W 001°47'2 3.5
2017-Jul-20 15:00N 46°28' W 001°47'2 2.0
2017-Jul-20 14:00N 46°28' W 001°50'2 4.4
2017-Jul-20 13:30N 46°29' W 001°47'1 1.6
2017-Jul-20 13:00N 46°30' W 001°47'0 0.0
2017-Jul-20 12:30N 46°30' W 001°47'0 0.0
2017-Jul-20 10:02N 46°30' W 001°47'0 0.0
2017-Jul-20 10:00N 46°30' W 001°47'0 0.0
2017-Jul-20 09:30N 46°30' W 001°47'0 0.0
2017-Jul-20 09:00N 46°30' W 001°47'0 0.0
2017-Jul-19 15:29N 46°30' W 001°47'0 0.0
2017-Jul-19 09:35N 46°30' W 001°47'0 0.1
2017-Jul-19 09:30N 46°30' W 001°47'0 0.0
2017-Jul-19 09:00N 46°30' W 001°47'0 0.0
2017-Jul-19 08:30N 46°30' W 001°47'0 0.0
2017-Jul-19 08:01N 46°30' W 001°47'0 0.0
2017-Jul-19 07:30N 46°30' W 001°47'1 1.6
2017-Jul-19 07:00N 46°29' W 001°47'1 1.4
2017-Jul-19 06:31N 46°28' W 001°47'1 1.7
2017-Jul-19 06:00N 46°28' W 001°48'1 2.4
2017-Jul-19 05:30N 46°28' W 001°50'0 0.4
2017-Jul-19 05:01N 46°28' W 001°50'0 0.0
2017-Jul-19 04:30N 46°28' W 001°50'1 2.0
2017-Jul-19 04:00N 46°27' W 001°51'2 3.7
2017-Jul-19 03:30N 46°26' W 001°53'2 3.7
2017-Jul-19 03:00N 46°25' W 001°56'2 3.4
2017-Jul-19 02:30N 46°27' W 001°58'2 3.1
2017-Jul-19 02:00N 46°26' W 001°60'2 3.6
2017-Jul-19 01:30N 46°26' W 002°02'2 3.8
2017-Jul-19 00:59N 46°26' W 002°05'2 3.8
2017-Jul-19 00:31N 46°26' W 002°08'4 3.9
2017-Jul-18 23:32N 46°26' W 002°13'6 3.9
2017-Jul-18 22:06N 46°26' W 002°21'0 3.8
2017-Jul-18 22:00N 46°26' W 002°22'2 3.9
2017-Jul-18 21:30N 46°26' W 002°25'2 3.9
2017-Jul-18 20:56N 46°25' W 002°28'10 2.9
2017-Jul-18 17:30N 46°23' W 002°42'14 1.1
2017-Jul-18 04:28N 46°11' W 002°31'2 1.8
2017-Jul-18 03:28N 46°10' W 002°29'1 1.2
2017-Jul-18 02:55N 46°09' W 002°28'1 3.5
2017-Jul-18 02:29N 46°10' W 002°26'15 9.1
2017-Jul-18 00:48N 46°19' W 002°08'3 9.0
2017-Jul-18 00:30N 46°21' W 002°05'4 8.9
2017-Jul-18 00:01N 46°23' W 002°00'5 9.0
2017-Jul-17 23:30N 46°25' W 001°54'4 8.9
2017-Jul-17 23:00N 46°28' W 001°49'3 5.0
2017-Jul-17 22:30N 46°30' W 001°47'0 0.1
2017-Jul-17 22:00N 46°30' W 001°47'0 0.1
2017-Jul-17 21:30N 46°30' W 001°47'0 0.3
2017-Jul-17 21:00N 46°30' W 001°47'0 0.3
2017-Jul-17 20:30N 46°30' W 001°48'4 7.7
2017-Jul-17 20:00N 46°27' W 001°51'5 9.3
2017-Jul-17 19:30N 46°24' W 001°57'5 9.3
2017-Jul-17 19:00N 46°22' W 002°03'5 9.5
2017-Jul-17 18:30N 46°20' W 002°09'  
Track history (hours):
 
Tides and Currents Weather Stations Pressure Air Temp Water Temp Dewpoint Dewpoint Depression Visibility Wind Speed Wind Dir Waves Ship Positions

F/v_l'omerta

Last reported at 2017-Jul-26 18:43 UTC. Time now 2017-Jul-26 22:41 UTC.
Position N 46°02' W 001°37'.

Length 18 m.

Type: Fishing. MMSI: 227903000.

Date/timePositionNaut miles runAvg speedWind from/ knotsBaromVisibWave heightAir tempDewpointWater temp
2017-Jul-26 18:43N 46°02' W 001°37'3 0.6
2017-Jul-26 13:14N 46°01' W 001°32'1 0.3
2017-Jul-26 09:39N 46°01' W 001°30'1 2.6
2017-Jul-26 09:25N 46°02' W 001°30'9 1.5
2017-Jul-26 03:35N 46°07' W 001°40'1 3.8
2017-Jul-26 03:17N 46°09' W 001°40'1 3.7
2017-Jul-26 03:00N 46°10' W 001°40'2 3.9
2017-Jul-26 02:30N 46°11' W 001°42'3 3.6
2017-Jul-26 01:38N 46°13' W 001°46'0 1.6
2017-Jul-26 01:30N 46°13' W 001°46'2 3.7
2017-Jul-26 01:00N 46°14' W 001°47'1 2.9
2017-Jul-26 00:30N 46°16' W 001°48'2 3.5
2017-Jul-25 23:59N 46°14' W 001°46'5 3.6
2017-Jul-25 22:36N 46°10' W 001°43'0 0.1
2017-Jul-25 20:57N 46°10' W 001°43'2 3.9
2017-Jul-25 20:30N 46°12' W 001°43'2 4.2
2017-Jul-25 20:00N 46°14' W 001°44'2 4.2
2017-Jul-25 19:30N 46°15' W 001°45'2 4.2
2017-Jul-25 19:00N 46°17' W 001°47'2 4.2
2017-Jul-25 18:30N 46°19' W 001°48'2 3.4
2017-Jul-25 18:00N 46°20' W 001°46'1 1.1
2017-Jul-25 17:30N 46°20' W 001°45'2 3.5
2017-Jul-25 17:00N 46°19' W 001°47'2 3.5
2017-Jul-25 16:30N 46°21' W 001°48'2 3.5
2017-Jul-25 16:00N 46°22' W 001°46'2 3.4
2017-Jul-25 15:30N 46°22' W 001°44'1 2.0
2017-Jul-25 15:00N 46°21' W 001°43'4 4.1
2017-Jul-25 14:00N 46°19' W 001°49'2 3.2
2017-Jul-25 13:30N 46°20' W 001°50'2 3.7
2017-Jul-25 13:00N 46°22' W 001°51'1 2.7
2017-Jul-25 12:30N 46°22' W 001°49'2 3.7
2017-Jul-25 12:00N 46°20' W 001°48'2 3.6
2017-Jul-25 11:30N 46°19' W 001°48'2 3.4
2017-Jul-25 11:00N 46°20' W 001°49'2 4.2
2017-Jul-25 10:30N 46°22' W 001°51'2 3.9
2017-Jul-25 10:00N 46°24' W 001°52'1 2.1
2017-Jul-25 09:30N 46°25' W 001°52'2 3.4
2017-Jul-25 09:00N 46°23' W 001°52'2 3.6
2017-Jul-25 08:30N 46°21' W 001°51'2 3.7
2017-Jul-25 08:00N 46°20' W 001°49'1 2.9
2017-Jul-25 07:30N 46°18' W 001°49'3 4.0
2017-Jul-25 06:43N 46°21' W 001°51'1 4.0
2017-Jul-25 06:30N 46°22' W 001°52'2 4.1
2017-Jul-25 06:00N 46°24' W 001°52'3 5.1
2017-Jul-25 05:30N 46°26' W 001°50'4 8.1
2017-Jul-25 05:00N 46°29' W 001°48'0 0.8
2017-Jul-25 04:30N 46°30' W 001°48'0 0.4
2017-Jul-25 04:00N 46°30' W 001°47'0 0.0
2017-Jul-24 15:47N 46°30' W 001°47'  
2017-Jul-22 09:45N 46°30' W 001°47'0 0.0
2017-Jul-22 09:30N 46°30' W 001°47'0 0.0
2017-Jul-22 09:00N 46°30' W 001°47'0 0.0
2017-Jul-22 08:30N 46°30' W 001°47'0 0.0
2017-Jul-22 08:00N 46°30' W 001°47'0 0.0
2017-Jul-22 07:30N 46°30' W 001°47'0 0.0
2017-Jul-22 07:00N 46°30' W 001°47'0 0.0
2017-Jul-22 06:30N 46°30' W 001°47'0 0.0
2017-Jul-21 11:18N 46°30' W 001°47'0 0.0
2017-Jul-21 11:00N 46°30' W 001°47'0 0.0
2017-Jul-21 10:30N 46°30' W 001°47'0 0.0
2017-Jul-21 10:00N 46°30' W 001°47'0 0.0
2017-Jul-21 09:30N 46°30' W 001°47'0 0.0
2017-Jul-21 09:00N 46°30' W 001°47'0 0.0
2017-Jul-21 08:30N 46°30' W 001°47'0 0.0
2017-Jul-21 08:00N 46°30' W 001°47'0 0.0
2017-Jul-21 07:30N 46°30' W 001°47'0 0.0
2017-Jul-21 07:00N 46°30' W 001°47'0 0.0
2017-Jul-21 06:30N 46°30' W 001°47'0 0.0
2017-Jul-20 15:26N 46°30' W 001°47'2 3.5
2017-Jul-20 15:00N 46°28' W 001°47'2 2.0
2017-Jul-20 14:00N 46°28' W 001°50'2 4.4
2017-Jul-20 13:30N 46°29' W 001°47'1 1.6
2017-Jul-20 13:00N 46°30' W 001°47'0 0.0
2017-Jul-20 12:30N 46°30' W 001°47'0 0.0
2017-Jul-20 10:02N 46°30' W 001°47'0 0.0
2017-Jul-20 10:00N 46°30' W 001°47'0 0.0
2017-Jul-20 09:30N 46°30' W 001°47'0 0.0
2017-Jul-20 09:00N 46°30' W 001°47'0 0.0
2017-Jul-19 15:29N 46°30' W 001°47'0 0.0
2017-Jul-19 09:35N 46°30' W 001°47'0 0.1
2017-Jul-19 09:30N 46°30' W 001°47'0 0.0
2017-Jul-19 09:00N 46°30' W 001°47'0 0.0
2017-Jul-19 08:30N 46°30' W 001°47'0 0.0
2017-Jul-19 08:01N 46°30' W 001°47'0 0.0
2017-Jul-19 07:30N 46°30' W 001°47'1 1.6
2017-Jul-19 07:00N 46°29' W 001°47'1 1.4
2017-Jul-19 06:31N 46°28' W 001°47'1 1.7
2017-Jul-19 06:00N 46°28' W 001°48'1 2.4
2017-Jul-19 05:30N 46°28' W 001°50'0 0.4
2017-Jul-19 05:01N 46°28' W 001°50'0 0.0
2017-Jul-19 04:30N 46°28' W 001°50'1 2.0
2017-Jul-19 04:00N 46°27' W 001°51'2 3.7
2017-Jul-19 03:30N 46°26' W 001°53'2 3.7
2017-Jul-19 03:00N 46°25' W 001°56'2 3.4
2017-Jul-19 02:30N 46°27' W 001°58'2 3.1
2017-Jul-19 02:00N 46°26' W 001°60'2 3.6
2017-Jul-19 01:30N 46°26' W 002°02'2 3.8
2017-Jul-19 00:59N 46°26' W 002°05'2 3.8
2017-Jul-19 00:31N 46°26' W 002°08'4 3.9
2017-Jul-18 23:32N 46°26' W 002°13'6 3.9
2017-Jul-18 22:06N 46°26' W 002°21'0 3.8
2017-Jul-18 22:00N 46°26' W 002°22'2 3.9
2017-Jul-18 21:30N 46°26' W 002°25'2 3.9
2017-Jul-18 20:56N 46°25' W 002°28'10 2.9
2017-Jul-18 17:30N 46°23' W 002°42'14 1.1
2017-Jul-18 04:28N 46°11' W 002°31'2 1.8
2017-Jul-18 03:28N 46°10' W 002°29'1 1.2
2017-Jul-18 02:55N 46°09' W 002°28'1 3.5
2017-Jul-18 02:29N 46°10' W 002°26'15 9.1
2017-Jul-18 00:48N 46°19' W 002°08'3 9.0
2017-Jul-18 00:30N 46°21' W 002°05'4 8.9
2017-Jul-18 00:01N 46°23' W 002°00'5 9.0
2017-Jul-17 23:30N 46°25' W 001°54'4 8.9
2017-Jul-17 23:00N 46°28' W 001°49'3 5.0
2017-Jul-17 22:30N 46°30' W 001°47'0 0.1
2017-Jul-17 22:00N 46°30' W 001°47'0 0.1
2017-Jul-17 21:30N 46°30' W 001°47'0 0.3
2017-Jul-17 21:00N 46°30' W 001°47'0 0.3
2017-Jul-17 20:30N 46°30' W 001°48'4 7.7
2017-Jul-17 20:00N 46°27' W 001°51'5 9.3
2017-Jul-17 19:30N 46°24' W 001°57'5 9.3
2017-Jul-17 19:00N 46°22' W 002°03'5 9.5
2017-Jul-17 18:30N 46°20' W 002°09'  

Dump ship's entire track history